Time;durP1;ratioP1;P1;durP2;ratioP2;P2;SDS_P1;SDS_P2;PMS_P1;PMS_P2;Temp;Humidity;BMP_temperature;BMP_pressure;BME280_temperature;BME280_humidity;BME280_pressure;Samples;Min_cycle;Max_cycle;Signal;HPM_P1;HPM_P2
2022/08/24 00:00:50;;;;;;;0.00;0.00;;;;;;;;;;6224929;22;20011;-88
2022/08/24 00:03:16;;;;;;;0.10;0.10;;;;;;;;;;6224903;22;20055;-88
2022/08/24 00:05:42;;;;;;;0.00;0.00;;;;;;;;;;6224421;22;20026;-89
2022/08/24 00:08:08;;;;;;;0.00;0.00;;;;;;;;;;6249849;22;20155;-89
2022/08/24 00:10:34;;;;;;;0.00;0.00;;;;;;;;;;6224663;22;20023;-88
2022/08/24 00:13:00;;;;;;;0.00;0.00;;;;;;;;;;6224651;22;20012;-88
2022/08/24 00:15:26;;;;;;;0.05;0.05;;;;;;;;;;6223955;22;20366;-88
2022/08/24 00:17:53;;;;;;;0.10;0.10;;;;;;;;;;6224682;22;20024;-88
2022/08/24 00:20:19;;;;;;;0.00;0.00;;;;;;;;;;6224542;22;20012;-88
2022/08/24 00:22:45;;;;;;;0.10;0.10;;;;;;;;;;6224794;22;20016;-88
2022/08/24 00:25:12;;;;;;;0.08;0.08;;;;;;;;;;6224881;22;20091;-89
2022/08/24 00:27:39;;;;;;;0.00;0.00;;;;;;;;;;6223987;22;20503;-88
2022/08/24 00:30:09;;;;;;;0.10;0.10;;;;;;;;;;6224445;22;20072;-88
2022/08/24 00:32:36;;;;;;;0.10;0.10;;;;;;;;;;6224789;22;20020;-88
2022/08/24 00:35:04;;;;;;;0.00;0.00;;;;;;;;;;6225037;22;20020;-88
2022/08/24 00:37:30;;;;;;;0.00;0.00;;;;;;;;;;6224261;22;20361;-88
2022/08/24 00:39:56;;;;;;;0.00;0.00;;;;;;;;;;6224471;22;20389;-88
2022/08/24 00:42:23;;;;;;;0.10;0.10;;;;;;;;;;6224762;22;20523;-88
2022/08/24 00:44:49;;;;;;;0.00;0.00;;;;;;;;;;6224642;22;20020;-88
2022/08/24 00:47:20;;;;;;;0.10;0.10;;;;;;;;;;6224217;22;20015;-88
2022/08/24 00:50:00;;;;;;;0.10;0.10;;;;;;;;;;6224851;22;20020;-89
2022/08/24 00:52:35;;;;;;;0.00;0.00;;;;;;;;;;6225453;22;20016;-89
2022/08/24 00:55:05;;;;;;;0.00;0.00;;;;;;;;;;6225472;22;20015;-89
2022/08/24 00:57:33;;;;;;;0.00;0.00;;;;;;;;;;6224361;22;20027;-89
2022/08/24 01:00:01;;;;;;;0.10;0.10;;;;;;;;;;6224684;22;20022;-88
2022/08/24 01:02:30;;;;;;;0.00;0.00;;;;;;;;;;6224335;22;20016;-88
2022/08/24 01:04:58;;;;;;;0.00;0.00;;;;;;;;;;6224577;22;20016;-89
2022/08/24 01:07:26;;;;;;;0.10;0.10;;;;;;;;;;6224405;22;20392;-88
2022/08/24 01:09:53;;;;;;;0.63;0.63;;;;;;;;;;6224173;22;20023;-89
2022/08/24 01:12:19;;;;;;;0.03;0.03;;;;;;;;;;6224555;22;20027;-89
2022/08/24 01:14:45;;;;;;;0.08;0.08;;;;;;;;;;6224559;22;20055;-88
2022/08/24 01:19:57;;;;;;;0.10;0.10;;;;;;;;;;6249704;22;20020;-88
2022/08/24 01:22:42;;;;;;;0.00;0.00;;;;;;;;;;6224586;22;20018;-88
2022/08/24 01:25:08;;;;;;;0.10;0.10;;;;;;;;;;6224379;22;20023;-89
2022/08/24 01:27:36;;;;;;;0.10;0.10;;;;;;;;;;6224104;22;20016;-89
2022/08/24 01:30:03;;;;;;;0.03;0.03;;;;;;;;;;6224213;22;20360;-89
2022/08/24 01:32:29;;;;;;;0.03;0.03;;;;;;;;;;6224627;22;20023;-89
2022/08/24 01:34:56;;;;;;;0.20;0.20;;;;;;;;;;6224576;22;20454;-89
2022/08/24 01:37:22;;;;;;;0.00;0.00;;;;;;;;;;6223787;22;20023;-88
2022/08/24 01:39:49;;;;;;;0.10;0.10;;;;;;;;;;6224658;22;20008;-89
2022/08/24 01:42:15;;;;;;;0.10;0.10;;;;;;;;;;6224405;22;20449;-89
2022/08/24 01:44:43;;;;;;;0.00;0.00;;;;;;;;;;6224675;22;20047;-89
2022/08/24 01:47:17;;;;;;;0.00;0.00;;;;;;;;;;6223821;22;20070;-88
2022/08/24 01:49:46;;;;;;;0.10;0.10;;;;;;;;;;6224223;22;20022;-88
2022/08/24 01:52:14;;;;;;;0.10;0.10;;;;;;;;;;6224502;22;20015;-89
2022/08/24 01:54:40;;;;;;;0.05;0.05;;;;;;;;;;6224120;22;20098;-88
2022/08/24 01:57:07;;;;;;;0.00;0.00;;;;;;;;;;6223672;22;20016;-88
2022/08/24 01:59:33;;;;;;;0.00;0.00;;;;;;;;;;6224089;22;20012;-88
2022/08/24 02:02:04;;;;;;;0.10;0.10;;;;;;;;;;6249513;22;20097;-88
2022/08/24 02:04:32;;;;;;;0.00;0.00;;;;;;;;;;6224107;22;20016;-88
2022/08/24 02:06:58;;;;;;;0.00;0.00;;;;;;;;;;6223599;22;20022;-88
2022/08/24 02:09:24;;;;;;;0.10;0.10;;;;;;;;;;6224061;22;20046;-89
2022/08/24 02:11:50;;;;;;;0.00;0.00;;;;;;;;;;6249815;22;20020;-89
2022/08/24 02:14:18;;;;;;;0.10;0.10;;;;;;;;;;6224710;22;20015;-89
2022/08/24 02:16:44;;;;;;;0.08;0.08;;;;;;;;;;6225709;22;20016;-88
2022/08/24 02:19:10;;;;;;;0.20;0.20;;;;;;;;;;6226180;22;20087;-88
2022/08/24 02:21:36;;;;;;;0.10;0.10;;;;;;;;;;6226280;22;20023;-88
2022/08/24 02:24:02;;;;;;;0.00;0.00;;;;;;;;;;6226209;22;20011;-89
2022/08/24 02:26:28;;;;;;;0.10;0.10;;;;;;;;;;6225482;22;20016;-88
2022/08/24 02:28:54;;;;;;;0.08;0.08;;;;;;;;;;6226193;22;20018;-88
2022/08/24 02:31:20;;;;;;;0.10;0.10;;;;;;;;;;6225965;22;20011;-89
2022/08/24 02:33:46;;;;;;;0.00;0.00;;;;;;;;;;6226208;22;20086;-89
2022/08/24 02:36:14;;;;;;;0.10;0.10;;;;;;;;;;6250847;22;20069;-89
2022/08/24 02:38:41;;;;;;;0.10;0.10;;;;;;;;;;6225916;22;20047;-88
2022/08/24 02:41:07;;;;;;;0.10;0.10;;;;;;;;;;6225835;22;20073;-89
2022/08/24 02:43:33;;;;;;;0.08;0.08;;;;;;;;;;6225633;22;20491;-89
2022/08/24 02:45:59;;;;;;;0.10;0.10;;;;;;;;;;6225949;22;20019;-89
2022/08/24 02:48:25;;;;;;;0.10;0.10;;;;;;;;;;6225896;22;20061;-89
2022/08/24 02:50:52;;;;;;;0.10;0.10;;;;;;;;;;6226137;22;20011;-89
2022/08/24 02:53:19;;;;;;;0.10;0.10;;;;;;;;;;6251242;22;20012;-89
2022/08/24 02:55:45;;;;;;;0.00;0.00;;;;;;;;;;6225133;22;20020;-88
2022/08/24 02:58:12;;;;;;;0.10;0.10;;;;;;;;;;6225632;22;20504;-88
2022/08/24 03:00:39;;;;;;;0.00;0.00;;;;;;;;;;6225623;22;20438;-89
2022/08/24 03:03:06;;;;;;;0.05;0.05;;;;;;;;;;6226081;22;20441;-89
2022/08/24 03:05:32;;;;;;;0.10;0.10;;;;;;;;;;6225066;22;20012;-89
2022/08/24 03:07:58;;;;;;;0.10;0.10;;;;;;;;;;6225639;22;20020;-89
2022/08/24 03:10:24;;;;;;;0.15;0.15;;;;;;;;;;6225714;22;20385;-88
2022/08/24 03:12:51;;;;;;;0.00;0.00;;;;;;;;;;6225246;22;20133;-88
2022/08/24 03:15:18;;;;;;;0.00;0.00;;;;;;;;;;6225427;22;20071;-88
2022/08/24 03:17:44;;;;;;;0.10;0.10;;;;;;;;;;6225184;22;20065;-88
2022/08/24 03:20:13;;;;;;;0.20;0.20;;;;;;;;;;6225231;22;20090;-88
2022/08/24 03:22:39;;;;;;;0.00;0.00;;;;;;;;;;6225325;22;20445;-88
2022/08/24 03:25:06;;;;;;;0.17;0.17;;;;;;;;;;6250536;22;20338;-89
2022/08/24 03:27:32;;;;;;;0.00;0.00;;;;;;;;;;6224440;22;20358;-88
2022/08/24 03:29:58;;;;;;;0.00;0.00;;;;;;;;;;6225478;22;20026;-89
2022/08/24 03:32:24;;;;;;;0.00;0.00;;;;;;;;;;6225350;22;20026;-88
2022/08/24 03:34:50;;;;;;;0.20;0.20;;;;;;;;;;6225514;22;20024;-88
2022/08/24 03:37:16;;;;;;;0.10;0.10;;;;;;;;;;6224604;22;20016;-88
2022/08/24 03:39:42;;;;;;;0.10;0.10;;;;;;;;;;6225344;22;20438;-88
2022/08/24 03:42:08;;;;;;;0.47;0.47;;;;;;;;;;6225203;22;20023;-88
2022/08/24 03:44:34;;;;;;;0.10;0.10;;;;;;;;;;6250614;22;20008;-88
2022/08/24 03:47:00;;;;;;;0.00;0.00;;;;;;;;;;6224859;22;20034;-89
2022/08/24 03:49:26;;;;;;;0.10;0.10;;;;;;;;;;6225245;22;20015;-88
2022/08/24 03:51:52;;;;;;;0.10;0.10;;;;;;;;;;6250611;22;20069;-88
2022/08/24 03:54:18;;;;;;;0.10;0.10;;;;;;;;;;6225023;22;20015;-88
2022/08/24 03:56:44;;;;;;;0.05;0.05;;;;;;;;;;6224822;22;20059;-88
2022/08/24 03:59:10;;;;;;;0.10;0.10;;;;;;;;;;6224939;22;20016;-88
2022/08/24 04:01:37;;;;;;;0.00;0.00;;;;;;;;;;6224676;22;20015;-88
2022/08/24 04:04:03;;;;;;;0.00;0.00;;;;;;;;;;6248224;22;20020;-88
2022/08/24 04:06:29;;;;;;;0.00;0.00;;;;;;;;;;6223320;22;20027;-88
2022/08/24 04:08:55;;;;;;;0.10;0.10;;;;;;;;;;6223924;22;20019;-88
2022/08/24 04:11:23;;;;;;;0.10;0.10;;;;;;;;;;6224205;22;20065;-88
2022/08/24 04:13:51;;;;;;;0.10;0.10;;;;;;;;;;6223952;22;20027;-88
2022/08/24 04:16:18;;;;;;;0.05;0.05;;;;;;;;;;6248987;22;20378;-88
2022/08/24 04:18:44;;;;;;;0.00;0.00;;;;;;;;;;6224103;22;20461;-88
2022/08/24 04:21:21;;;;;;;0.05;0.05;;;;;;;;;;6224139;22;20326;-88
2022/08/24 04:23:47;;;;;;;0.10;0.10;;;;;;;;;;6223907;22;20081;-88
2022/08/24 04:26:14;;;;;;;0.10;0.10;;;;;;;;;;6249004;22;20078;-88
2022/08/24 04:28:40;;;;;;;0.00;0.00;;;;;;;;;;6223548;22;20077;-88
2022/08/24 04:31:06;;;;;;;0.10;0.10;;;;;;;;;;6223984;22;20016;-88
2022/08/24 04:33:32;;;;;;;0.00;0.00;;;;;;;;;;6223740;22;20103;-88
2022/08/24 04:35:58;;;;;;;0.10;0.10;;;;;;;;;;6223364;22;20019;-88
2022/08/24 04:38:25;;;;;;;0.00;0.00;;;;;;;;;;6223818;22;20011;-88
2022/08/24 04:40:51;;;;;;;0.00;0.00;;;;;;;;;;6223937;22;20015;-88
2022/08/24 04:43:17;;;;;;;0.08;0.08;;;;;;;;;;6224137;22;20030;-88
2022/08/24 04:45:45;;;;;;;0.00;0.00;;;;;;;;;;6223659;22;20034;-88
2022/08/24 04:48:11;;;;;;;0.10;0.10;;;;;;;;;;6223738;22;20395;-88
2022/08/24 04:50:38;;;;;;;0.15;0.15;;;;;;;;;;6223814;22;20680;-88
2022/08/24 04:53:05;;;;;;;0.10;0.10;;;;;;;;;;6223853;22;20389;-88
2022/08/24 04:55:31;;;;;;;0.10;0.10;;;;;;;;;;6223190;22;20016;-88
2022/08/24 04:57:58;;;;;;;0.10;0.10;;;;;;;;;;6223976;22;20016;-89
2022/08/24 05:00:24;;;;;;;0.05;0.05;;;;;;;;;;6224008;22;20015;-88
2022/08/24 05:02:50;;;;;;;0.00;0.00;;;;;;;;;;6224194;22;20379;-89
2022/08/24 05:05:16;;;;;;;0.00;0.00;;;;;;;;;;6224026;22;20011;-88
2022/08/24 05:07:43;;;;;;;0.10;0.10;;;;;;;;;;6223385;22;20026;-88
2022/08/24 05:10:10;;;;;;;0.10;0.10;;;;;;;;;;6223846;22;20103;-88
2022/08/24 05:12:37;;;;;;;0.10;0.10;;;;;;;;;;6223882;22;20022;-89
2022/08/24 05:15:04;;;;;;;0.10;0.10;;;;;;;;;;6224057;22;20016;-89
2022/08/24 05:17:30;;;;;;;0.17;0.17;;;;;;;;;;6223165;22;20106;-88
2022/08/24 05:19:57;;;;;;;0.10;0.10;;;;;;;;;;6224262;22;20016;-88
2022/08/24 05:22:23;;;;;;;0.10;0.10;;;;;;;;;;6223851;22;20015;-89
2022/08/24 05:24:49;;;;;;;0.00;0.00;;;;;;;;;;6223727;22;20026;-89
2022/08/24 05:27:16;;;;;;;0.00;0.00;;;;;;;;;;6223610;22;20103;-89
2022/08/24 05:29:42;;;;;;;0.10;0.10;;;;;;;;;;6224079;22;20020;-89
2022/08/24 05:32:08;;;;;;;0.10;0.10;;;;;;;;;;6224074;22;20023;-89
2022/08/24 05:34:35;;;;;;;0.10;0.10;;;;;;;;;;6223818;22;20342;-89
2022/08/24 05:37:01;;;;;;;0.00;0.00;;;;;;;;;;6223455;22;20019;-89
2022/08/24 05:39:29;;;;;;;0.10;0.10;;;;;;;;;;6223496;22;20065;-88
2022/08/24 05:41:55;;;;;;;0.10;0.10;;;;;;;;;;6224269;22;20071;-89
2022/08/24 05:44:23;;;;;;;0.17;0.17;;;;;;;;;;6223839;22;20019;-90
2022/08/24 05:46:49;;;;;;;0.10;0.10;;;;;;;;;;6223740;22;20019;-89
2022/08/24 05:49:15;;;;;;;0.10;0.10;;;;;;;;;;6223982;22;20051;-88
2022/08/24 05:51:47;;;;;;;0.10;0.10;;;;;;;;;;6225762;22;20071;-88
2022/08/24 05:54:13;;;;;;;0.10;0.10;;;;;;;;;;6250890;22;20020;-89
2022/08/24 05:56:39;;;;;;;0.10;0.10;;;;;;;;;;6224206;22;20019;-85
2022/08/24 05:59:05;;;;;;;0.10;0.10;;;;;;;;;;6224701;22;20400;-85
2022/08/24 06:01:32;;;;;;;0.10;0.10;;;;;;;;;;6224591;22;20023;-85
2022/08/24 06:03:58;;;;;;;0.10;0.10;;;;;;;;;;6224696;22;20056;-85
2022/08/24 06:06:25;;;;;;;0.00;0.00;;;;;;;;;;6224012;22;20098;-84
2022/08/24 06:08:53;;;;;;;0.10;0.10;;;;;;;;;;6224484;22;20022;-85
2022/08/24 06:11:25;;;;;;;0.10;0.10;;;;;;;;;;6224438;22;20019;-84
2022/08/24 06:13:52;;;;;;;0.10;0.10;;;;;;;;;;6224503;22;20483;-86
2022/08/24 06:16:19;;;;;;;0.00;0.00;;;;;;;;;;6212280;22;20466;-84
2022/08/24 06:18:50;;;;;;;0.10;0.10;;;;;;;;;;6218709;22;20465;-83
2022/08/24 06:21:17;;;;;;;0.00;0.00;;;;;;;;;;6224473;22;20022;-87
2022/08/24 06:23:43;;;;;;;0.10;0.10;;;;;;;;;;6224098;22;20421;-86
2022/08/24 06:28:59;;;;;;;0.08;0.08;;;;;;;;;;6249824;22;20016;-87
2022/08/24 06:31:26;;;;;;;0.10;0.10;;;;;;;;;;6248722;22;20047;-85
2022/08/24 06:33:52;;;;;;;0.00;0.00;;;;;;;;;;6224303;22;20012;-86
2022/08/24 06:36:18;;;;;;;0.10;0.10;;;;;;;;;;6223236;22;20022;-85
2022/08/24 06:38:44;;;;;;;0.10;0.10;;;;;;;;;;6224288;22;20519;-84
2022/08/24 06:41:11;;;;;;;0.10;0.10;;;;;;;;;;6224362;22;20357;-85
2022/08/24 06:43:37;;;;;;;0.10;0.10;;;;;;;;;;6225168;22;20020;-88
2022/08/24 06:46:03;;;;;;;0.08;0.08;;;;;;;;;;6223396;22;20095;-87
2022/08/24 06:48:29;;;;;;;0.10;0.10;;;;;;;;;;6249371;22;20020;-87
2022/08/24 06:50:56;;;;;;;0.10;0.10;;;;;;;;;;6224130;22;20037;-87
2022/08/24 06:53:22;;;;;;;0.05;0.05;;;;;;;;;;6223548;22;20012;-88
2022/08/24 06:55:56;;;;;;;0.00;0.00;;;;;;;;;;6223543;22;20438;-89
2022/08/24 06:58:23;;;;;;;0.00;0.00;;;;;;;;;;6223651;22;20350;-86
2022/08/24 07:00:49;;;;;;;0.08;0.08;;;;;;;;;;6223603;22;20469;-85
2022/08/24 07:03:16;;;;;;;0.10;0.10;;;;;;;;;;6224004;22;20103;-86
2022/08/24 07:05:51;;;;;;;0.00;0.00;;;;;;;;;;6248544;22;20016;-87
2022/08/24 07:08:17;;;;;;;0.00;0.00;;;;;;;;;;6223762;22;20019;-86
2022/08/24 07:10:43;;;;;;;0.00;0.00;;;;;;;;;;6223433;22;20069;-87
2022/08/24 07:13:10;;;;;;;0.10;0.10;;;;;;;;;;6223628;22;20057;-86
2022/08/24 07:15:36;;;;;;;0.17;0.17;;;;;;;;;;6248362;22;20011;-87
2022/08/24 07:18:02;;;;;;;0.00;0.00;;;;;;;;;;6223276;22;20051;-88
2022/08/24 07:20:31;;;;;;;0.00;0.00;;;;;;;;;;6223452;22;20390;-87
2022/08/24 07:22:57;;;;;;;0.10;0.10;;;;;;;;;;6223517;22;20489;-86
2022/08/24 07:25:23;;;;;;;0.00;0.00;;;;;;;;;;6248341;22;20016;-86
2022/08/24 07:27:49;;;;;;;0.10;0.10;;;;;;;;;;6223501;22;20062;-88
2022/08/24 07:30:16;;;;;;;0.10;0.10;;;;;;;;;;6248907;22;20717;-86
2022/08/24 07:32:42;;;;;;;0.00;0.00;;;;;;;;;;6223323;22;20027;-87
2022/08/24 07:35:08;;;;;;;0.10;0.10;;;;;;;;;;6223593;22;20012;-88
2022/08/24 07:37:34;;;;;;;0.00;0.00;;;;;;;;;;6224980;22;20109;-90
2022/08/24 07:40:00;;;;;;;1.00;0.52;;;;;;;;;;6224359;22;20019;-87
2022/08/24 07:42:26;;;;;;;0.00;0.00;;;;;;;;;;6223602;22;20428;-86
2022/08/24 07:44:52;;;;;;;0.00;0.00;;;;;;;;;;6223762;22;20022;-86
2022/08/24 07:47:18;;;;;;;0.00;0.00;;;;;;;;;;6223018;22;20536;-86
2022/08/24 07:49:45;;;;;;;0.10;0.10;;;;;;;;;;6223792;22;20071;-86
2022/08/24 07:52:12;;;;;;;0.10;0.10;;;;;;;;;;6223516;22;20022;-86
2022/08/24 07:54:38;;;;;;;0.00;0.00;;;;;;;;;;6223337;22;20094;-86
2022/08/24 07:57:05;;;;;;;0.08;0.08;;;;;;;;;;6222850;22;20051;-86
2022/08/24 07:59:31;;;;;;;0.10;0.10;;;;;;;;;;6248540;22;20523;-85
2022/08/24 08:01:58;;;;;;;0.10;0.10;;;;;;;;;;6223120;22;20323;-86
2022/08/24 08:04:24;;;;;;;0.00;0.00;;;;;;;;;;6223075;22;20073;-86
2022/08/24 08:06:51;;;;;;;0.00;0.00;;;;;;;;;;6222851;22;20016;-86
2022/08/24 08:09:17;;;;;;;0.10;0.10;;;;;;;;;;6222963;22;20025;-87
2022/08/24 08:11:44;;;;;;;0.20;0.20;;;;;;;;;;6248510;22;20015;-85
2022/08/24 08:14:10;;;;;;;0.10;0.10;;;;;;;;;;6222732;22;20038;-84
2022/08/24 08:16:38;;;;;;;0.00;0.00;;;;;;;;;;6222364;22;20019;-86
2022/08/24 08:19:04;;;;;;;0.08;0.08;;;;;;;;;;6223307;22;20480;-86
2022/08/24 08:24:15;;;;;;;0.00;0.00;;;;;;;;;;6248371;22;20027;-85
2022/08/24 08:26:45;;;;;;;0.00;0.00;;;;;;;;;;6222538;22;20015;-89
2022/08/24 08:29:12;;;;;;;0.00;0.00;;;;;;;;;;6248808;22;20047;-88
2022/08/24 08:31:39;;;;;;;0.10;0.10;;;;;;;;;;6223408;22;20016;-88
2022/08/24 08:34:05;;;;;;;0.10;0.10;;;;;;;;;;6223210;22;20501;-86
2022/08/24 08:36:31;;;;;;;0.10;0.10;;;;;;;;;;6222139;22;20055;-84
2022/08/24 08:38:57;;;;;;;0.10;0.10;;;;;;;;;;6222912;22;20065;-86
2022/08/24 08:41:42;;;;;;;0.10;0.10;;;;;;;;;;6222730;22;20012;-86
2022/08/24 08:44:08;;;;;;;;;;;;;;;;;;6223480;22;20345;-85
2022/08/24 08:46:40;;;;;;;0.10;0.10;;;;;;;;;;6222343;22;19989;-87
2022/08/24 08:49:09;;;;;;;0.10;0.10;;;;;;;;;;6223285;22;20322;-90
2022/08/24 08:51:47;;;;;;;0.00;0.00;;;;;;;;;;6223370;22;20129;-88
2022/08/24 08:54:29;;;;;;;0.10;0.10;;;;;;;;;;6223242;22;20011;-90
2022/08/24 08:57:01;;;;;;;0.10;0.10;;;;;;;;;;6222004;22;20418;-87
2022/08/24 08:59:27;;;;;;;0.00;0.00;;;;;;;;;;6248020;22;20008;-88
2022/08/24 09:02:06;;;;;;;0.10;0.10;;;;;;;;;;6222795;22;20100;-87
2022/08/24 09:04:57;;;;;;;0.00;0.00;;;;;;;;;;6222552;22;20035;-87
2022/08/24 09:07:33;;;;;;;0.10;0.10;;;;;;;;;;6222537;22;20051;-88
2022/08/24 09:10:01;;;;;;;0.00;0.00;;;;;;;;;;6222709;22;20024;-87
2022/08/24 09:12:30;;;;;;;0.00;0.00;;;;;;;;;;6222725;22;20030;-87
2022/08/24 09:14:55;;;;;;;0.00;0.00;;;;;;;;;;6222767;22;20450;-87
2022/08/24 09:17:31;;;;;;;0.08;0.08;;;;;;;;;;6222733;22;20066;-90
2022/08/24 09:20:06;;;;;;;0.10;0.10;;;;;;;;;;6223690;22;20020;-89
2022/08/24 09:22:32;;;;;;;;;;;;;;;;;;6248676;22;20327;-88
2022/08/24 09:25:01;;;;;;;0.05;0.05;;;;;;;;;;6223565;22;19947;-87
2022/08/24 09:27:37;;;;;;;0.10;0.10;;;;;;;;;;6224538;22;20015;-87
2022/08/24 09:30:10;;;;;;;0.10;0.10;;;;;;;;;;6225417;22;20022;-90
2022/08/24 09:32:42;;;;;;;0.00;0.00;;;;;;;;;;6225808;22;20020;-89
2022/08/24 09:35:14;;;;;;;0.00;0.00;;;;;;;;;;6225846;22;20069;-90
2022/08/24 09:37:50;;;;;;;0.05;0.05;;;;;;;;;;6250698;22;20047;-89
2022/08/24 09:40:16;;;;;;;0.00;0.00;;;;;;;;;;6225446;22;20023;-89
2022/08/24 09:43:03;;;;;;;0.10;0.10;;;;;;;;;;6225142;22;20018;-90
2022/08/24 09:45:32;;;;;;;0.00;0.00;;;;;;;;;;6224488;22;20026;-89
2022/08/24 09:48:09;;;;;;;0.08;0.08;;;;;;;;;;6250311;22;20445;-86
2022/08/24 09:50:53;;;;;;;0.00;0.00;;;;;;;;;;6224789;22;20015;-87
2022/08/24 09:53:19;;;;;;;0.00;0.00;;;;;;;;;;6249883;22;20111;-86
2022/08/24 09:56:01;;;;;;;0.00;0.00;;;;;;;;;;6223857;22;20101;-88
2022/08/24 09:58:36;;;;;;;0.03;0.03;;;;;;;;;;6224425;22;20016;-87
2022/08/24 10:01:08;;;;;;;0.00;0.00;;;;;;;;;;6225396;22;20016;-89
2022/08/24 10:03:43;;;;;;;0.10;0.10;;;;;;;;;;6225509;22;20012;-89
2022/08/24 10:06:35;;;;;;;0.03;0.03;;;;;;;;;;6224523;22;20556;-89
2022/08/24 10:09:22;;;;;;;0.00;0.00;;;;;;;;;;6218188;22;20012;-89
2022/08/24 10:12:08;;;;;;;0.00;0.00;;;;;;;;;;6225071;22;20011;-89
2022/08/24 10:14:55;;;;;;;0.00;0.00;;;;;;;;;;6200156;22;20012;-88
2022/08/24 10:17:39;;;;;;;0.13;0.13;;;;;;;;;;6224358;22;20012;-89
2022/08/24 10:20:05;;;;;;;;;;;;;;;;;;6225031;22;20015;-89
2022/08/24 10:22:50;;;;;;;0.00;0.00;;;;;;;;;;6224865;22;19957;-89
2022/08/24 10:25:29;;;;;;;0.00;0.00;;;;;;;;;;6224971;22;20090;-90
2022/08/24 10:27:55;;;;;;;0.00;0.00;;;;;;;;;;6225379;22;20345;-89
2022/08/24 10:30:24;;;;;;;0.10;0.10;;;;;;;;;;6250258;22;20051;-89
2022/08/24 10:33:18;;;;;;;0.00;0.00;;;;;;;;;;6225335;22;20069;-90
2022/08/24 10:36:03;;;;;;;0.00;0.00;;;;;;;;;;6224663;22;20038;-90
2022/08/24 10:41:16;;;;;;;0.10;0.10;;;;;;;;;;6250525;22;19946;-90
2022/08/24 10:43:42;;;;;;;0.00;0.00;;;;;;;;;;6250546;22;20352;-91
2022/08/24 10:46:29;;;;;;;0.00;0.00;;;;;;;;;;6224743;22;20098;-90
2022/08/24 10:49:18;;;;;;;0.10;0.10;;;;;;;;;;6199145;22;20109;-88
2022/08/24 10:51:56;;;;;;;0.10;0.10;;;;;;;;;;6224252;22;20090;-87
2022/08/24 10:54:23;;;;;;;0.00;0.00;;;;;;;;;;6224079;22;20015;-87
2022/08/24 10:56:49;;;;;;;0.00;0.00;;;;;;;;;;6223431;22;20058;-87
2022/08/24 10:59:23;;;;;;;0.00;0.00;;;;;;;;;;6249296;22;20007;-87
2022/08/24 11:02:04;;;;;;;0.00;0.00;;;;;;;;;;6249696;22;20016;-87
2022/08/24 11:04:31;;;;;;;0.08;0.08;;;;;;;;;;6224043;22;20106;-87
2022/08/24 11:07:06;;;;;;;0.00;0.00;;;;;;;;;;6224034;22;20015;-91
2022/08/24 11:09:44;;;;;;;0.00;0.00;;;;;;;;;;6213197;22;20019;-88
2022/08/24 11:12:38;;;;;;;0.00;0.00;;;;;;;;;;6207658;22;20484;-87
2022/08/24 11:15:10;;;;;;;0.00;0.00;;;;;;;;;;6226430;22;20019;-87
2022/08/24 11:17:36;;;;;;;0.00;0.00;;;;;;;;;;6245533;22;20082;-89
2022/08/24 11:20:03;;;;;;;0.05;0.05;;;;;;;;;;6224084;22;20011;-88
2022/08/24 11:22:36;;;;;;;0.00;0.00;;;;;;;;;;6224285;22;20016;-87
2022/08/24 11:25:07;;;;;;;0.00;0.00;;;;;;;;;;6223542;22;20069;-89
2022/08/24 11:27:39;;;;;;;0.00;0.00;;;;;;;;;;6223059;22;20016;-87
2022/08/24 11:30:06;;;;;;;0.00;0.00;;;;;;;;;;6223579;22;20484;-86
2022/08/24 11:32:44;;;;;;;0.00;0.00;;;;;;;;;;6223513;22;20019;-88
2022/08/24 11:35:20;;;;;;;0.00;0.00;;;;;;;;;;6248773;22;20024;-88
2022/08/24 11:37:46;;;;;;;0.00;0.00;;;;;;;;;;6248187;22;20062;-88
2022/08/24 11:40:13;;;;;;;0.03;0.03;;;;;;;;;;6248425;22;20016;-87
2022/08/24 11:42:39;;;;;;;0.00;0.00;;;;;;;;;;6223556;22;20090;-87
2022/08/24 11:45:14;;;;;;;0.00;0.00;;;;;;;;;;6223911;22;20086;-89
2022/08/24 11:48:07;;;;;;;0.00;0.00;;;;;;;;;;6247901;22;20115;-87
2022/08/24 11:50:36;;;;;;;0.10;0.10;;;;;;;;;;6223816;22;20020;-90
2022/08/24 11:53:05;;;;;;;0.10;0.10;;;;;;;;;;6223994;22;20069;-92
2022/08/24 11:55:57;;;;;;;0.00;0.00;;;;;;;;;;6224900;22;20016;-89
2022/08/24 11:58:34;;;;;;;0.00;0.00;;;;;;;;;;6250040;22;20016;-91
2022/08/24 12:01:00;;;;;;;0.00;0.00;;;;;;;;;;6224772;22;20022;-94
2022/08/24 12:03:53;;;;;;;0.00;0.00;;;;;;;;;;6224533;22;20504;-92
2022/08/24 12:06:27;;;;;;;0.10;0.10;;;;;;;;;;6224142;22;20606;-90
2022/08/24 12:08:57;;;;;;;0.10;0.10;;;;;;;;;;6223258;22;20075;-89
2022/08/24 12:11:34;;;;;;;0.08;0.08;;;;;;;;;;6224488;22;20438;-93
2022/08/24 12:14:19;;;;;;;0.10;0.10;;;;;;;;;;6224812;22;20030;-90
2022/08/24 12:16:52;;;;;;;0.08;0.08;;;;;;;;;;6224065;22;20019;-89
2022/08/24 12:22:10;;;;;;;0.00;0.00;;;;;;;;;;6250025;22;20020;-91
2022/08/24 12:24:55;;;;;;;0.00;0.00;;;;;;;;;;6224264;22;20015;-93
2022/08/24 12:27:26;;;;;;;0.00;0.00;;;;;;;;;;6224214;22;20019;-92
2022/08/24 12:30:00;;;;;;;0.10;0.10;;;;;;;;;;6249529;22;20046;-89
2022/08/24 12:32:48;;;;;;;0.00;0.00;;;;;;;;;;6223884;22;20019;-89
2022/08/24 12:35:17;;;;;;;0.00;0.00;;;;;;;;;;6223818;22;20070;-90
2022/08/24 12:37:50;;;;;;;0.00;0.00;;;;;;;;;;6222266;22;20707;-89
2022/08/24 12:40:20;;;;;;;0.08;0.08;;;;;;;;;;6248517;22;20022;-87
2022/08/24 12:42:54;;;;;;;0.10;0.10;;;;;;;;;;6249345;22;20012;-89
2022/08/24 12:45:21;;;;;;;0.00;0.00;;;;;;;;;;6246919;22;20090;-88
2022/08/24 12:47:54;;;;;;;0.10;0.10;;;;;;;;;;6223443;22;20027;-89
2022/08/24 12:50:20;;;;;;;0.00;0.00;;;;;;;;;;6223309;22;20020;-86
2022/08/24 12:52:52;;;;;;;0.00;0.00;;;;;;;;;;6222924;22;20389;-86
2022/08/24 12:55:24;;;;;;;0.00;0.00;;;;;;;;;;6222606;22;20386;-87
2022/08/24 12:58:04;;;;;;;0.00;0.00;;;;;;;;;;6223231;22;20059;-88
2022/08/24 13:00:44;;;;;;;0.00;0.00;;;;;;;;;;6248318;22;20102;-88
2022/08/24 13:03:24;;;;;;;0.00;0.00;;;;;;;;;;6248410;22;20530;-88
2022/08/24 13:05:53;;;;;;;0.10;0.10;;;;;;;;;;6222919;22;20016;-88
2022/08/24 13:08:32;;;;;;;0.00;0.00;;;;;;;;;;6222298;22;20016;-87
2022/08/24 13:11:10;;;;;;;0.08;0.08;;;;;;;;;;6222693;22;20026;-89
2022/08/24 13:13:56;;;;;;;0.00;0.00;;;;;;;;;;6222209;22;20023;-86
2022/08/24 13:16:40;;;;;;;0.00;0.00;;;;;;;;;;6221804;22;20015;-87
2022/08/24 13:19:13;;;;;;;0.10;0.10;;;;;;;;;;6247807;22;20016;-86
2022/08/24 13:21:41;;;;;;;0.00;0.00;;;;;;;;;;6222238;22;20043;-86
2022/08/24 13:24:27;;;;;;;0.10;0.10;;;;;;;;;;6246515;22;20016;-86
2022/08/24 13:26:57;;;;;;;0.00;0.00;;;;;;;;;;6221762;22;20022;-86
2022/08/24 13:29:26;;;;;;;0.00;0.00;;;;;;;;;;6247698;22;20353;-86
2022/08/24 13:31:55;;;;;;;0.00;0.00;;;;;;;;;;6222516;22;20019;-86
2022/08/24 13:34:23;;;;;;;0.00;0.00;;;;;;;;;;6247709;22;20022;-87
2022/08/24 13:36:49;;;;;;;0.00;0.00;;;;;;;;;;6221878;22;20020;-86
2022/08/24 13:39:47;;;;;;;0.00;0.00;;;;;;;;;;6247150;22;20098;-86
2022/08/24 13:42:26;;;;;;;0.00;0.00;;;;;;;;;;6222104;22;20047;-86
2022/08/24 13:44:52;;;;;;;0.00;0.00;;;;;;;;;;6247916;22;20034;-86
2022/08/24 13:47:22;;;;;;;0.10;0.10;;;;;;;;;;6222019;22;20098;-86
2022/08/24 13:49:51;;;;;;;0.00;0.00;;;;;;;;;;6247622;22;20019;-86
2022/08/24 13:52:17;;;;;;;0.00;0.00;;;;;;;;;;6222790;22;20349;-88
2022/08/24 13:55:02;;;;;;;0.00;0.00;;;;;;;;;;6222649;22;20024;-88
2022/08/24 13:57:38;;;;;;;0.00;0.00;;;;;;;;;;6222433;22;20058;-89
2022/08/24 14:00:18;;;;;;;0.00;0.00;;;;;;;;;;6223131;22;20345;-89
2022/08/24 14:02:50;;;;;;;0.00;0.00;;;;;;;;;;6223064;22;20012;-91
2022/08/24 14:05:23;;;;;;;0.00;0.00;;;;;;;;;;6248739;22;20038;-91
2022/08/24 14:07:52;;;;;;;0.00;0.00;;;;;;;;;;6222691;22;20387;-91
2022/08/24 14:10:33;;;;;;;0.00;0.00;;;;;;;;;;6223235;22;20441;-90
2022/08/24 14:13:14;;;;;;;0.00;0.00;;;;;;;;;;6224989;22;20019;-90
2022/08/24 14:15:44;;;;;;;0.05;0.05;;;;;;;;;;6224484;22;20361;-90
2022/08/24 14:18:44;;;;;;;0.00;0.00;;;;;;;;;;6224959;22;20023;-89
2022/08/24 14:21:18;;;;;;;0.00;0.00;;;;;;;;;;6225316;22;20089;-90
2022/08/24 14:23:48;;;;;;;0.10;0.10;;;;;;;;;;6225679;22;20095;-90
2022/08/24 14:26:33;;;;;;;0.10;0.10;;;;;;;;;;6224253;22;20094;-91
2022/08/24 14:28:59;;;;;;;;;;;;;;;;;;6250776;22;20043;-91
2022/08/24 14:31:28;;;;;;;0.05;0.05;;;;;;;;;;6250385;22;19912;-89
2022/08/24 14:34:13;;;;;;;0.00;0.00;;;;;;;;;;6224885;22;20349;-92
2022/08/24 14:36:56;;;;;;;0.00;0.00;;;;;;;;;;6224291;22;20102;-88
2022/08/24 14:39:41;;;;;;;0.00;0.00;;;;;;;;;;6249888;22;20060;-89
2022/08/24 14:42:10;;;;;;;0.00;0.00;;;;;;;;;;6224509;22;20098;-91
2022/08/24 14:48:03;;;;;;;0.10;0.10;;;;;;;;;;6250126;22;20392;-90
2022/08/24 14:50:52;;;;;;;0.00;0.00;;;;;;;;;;6224877;22;20011;-90
2022/08/24 14:53:31;;;;;;;0.00;0.00;;;;;;;;;;6156681;22;20023;-91
2022/08/24 14:56:06;;;;;;;0.05;0.05;;;;;;;;;;6224390;22;20047;-90
2022/08/24 14:58:59;;;;;;;0.00;0.00;;;;;;;;;;6225083;22;20022;-90
2022/08/24 15:01:40;;;;;;;0.00;0.00;;;;;;;;;;6244276;22;20327;-90
2022/08/24 15:04:06;;;;;;;0.00;0.00;;;;;;;;;;6225042;22;20065;-91
2022/08/24 15:06:38;;;;;;;0.00;0.00;;;;;;;;;;6224474;22;20380;-89
2022/08/24 15:09:10;;;;;;;0.00;0.00;;;;;;;;;;6224514;22;20047;-89
2022/08/24 15:11:39;;;;;;;0.10;0.10;;;;;;;;;;6225735;22;20441;-92
2022/08/24 15:14:07;;;;;;;0.00;0.00;;;;;;;;;;6225633;22;20503;-92
2022/08/24 15:16:44;;;;;;;0.00;0.00;;;;;;;;;;6225288;22;20015;-93
2022/08/24 15:19:29;;;;;;;0.00;0.00;;;;;;;;;;6225308;22;20015;-92